UAE658 OMDB-VRMM
Flight info
| Callsign | UAE658 |
|---|---|
| Flight time | N/A |
| Altitude | 37000 |
| Route | ANVIX L223 TARDI N629 GIDAN P570 KITAL L894 GOLEM/N0485F390 L894 ELBET ELBET1A |
| Aircraft | B77W/H-SDE1E2E3FGHIJ2J3J4J5M1RWXY/LB1D1 |
Departure
| Time | N/A |
|---|---|
| Airport | Dubai International Airport (OMDB) |
Arrival
| Time | 2026-04-27 17:13 |
|---|---|
| Airport | Velana International Airport (VRMM) |
| Time | Latitude | Longitude | Altitude | Speed | Heading |
|---|---|---|---|---|---|
| 2026-04-27 16:50 | 5.25100 | 72.45784 | 38897 ft | 473 kts | 152° |
| 2026-04-27 16:50 | 5.19334 | 72.48993 | 38854 ft | 474 kts | 152° |
| 2026-04-27 16:51 | 5.16420 | 72.50613 | 38065 ft | 484 kts | 152° |
| 2026-04-27 16:51 | 5.13477 | 72.52250 | 37335 ft | 483 kts | 152° |
| 2026-04-27 16:51 | 5.10541 | 72.53884 | 36568 ft | 482 kts | 151° |
| 2026-04-27 16:51 | 5.07608 | 72.55515 | 35801 ft | 481 kts | 151° |
| 2026-04-27 16:52 | 5.04678 | 72.57145 | 34908 ft | 483 kts | 151° |
| 2026-04-27 16:52 | 5.01732 | 72.58783 | 33977 ft | 485 kts | 150° |
| 2026-04-27 16:52 | 4.98808 | 72.60409 | 32925 ft | 488 kts | 151° |
| 2026-04-27 16:52 | 4.95832 | 72.62064 | 31901 ft | 490 kts | 151° |
| 2026-04-27 16:53 | 4.92852 | 72.63721 | 30869 ft | 491 kts | 151° |
| 2026-04-27 16:53 | 4.89860 | 72.65384 | 30050 ft | 489 kts | 151° |
| 2026-04-27 16:53 | 4.86899 | 72.67030 | 29190 ft | 485 kts | 150° |
| 2026-04-27 16:53 | 4.83966 | 72.68659 | 28416 ft | 479 kts | 150° |
| 2026-04-27 16:54 | 4.81062 | 72.70272 | 27702 ft | 474 kts | 150° |
| 2026-04-27 16:54 | 4.78194 | 72.71865 | 27008 ft | 469 kts | 150° |
| 2026-04-27 16:54 | 4.75352 | 72.73444 | 26329 ft | 464 kts | 150° |
| 2026-04-27 16:54 | 4.72533 | 72.75010 | 25644 ft | 460 kts | 150° |
| 2026-04-27 16:55 | 4.69742 | 72.76560 | 24975 ft | 457 kts | 149° |
| 2026-04-27 16:55 | 4.66962 | 72.78104 | 24296 ft | 454 kts | 149° |
| 2026-04-27 16:55 | 4.64242 | 72.79614 | 23641 ft | 452 kts | 149° |
| 2026-04-27 16:55 | 4.61493 | 72.81142 | 22882 ft | 450 kts | 149° |
| 2026-04-27 16:56 | 4.58770 | 72.82654 | 22183 ft | 446 kts | 149° |
| 2026-04-27 16:56 | 4.56064 | 72.84156 | 21516 ft | 442 kts | 149° |
| 2026-04-27 16:56 | 4.53384 | 72.85644 | 20885 ft | 438 kts | 149° |
| 2026-04-27 16:56 | 4.50737 | 72.87114 | 20259 ft | 434 kts | 149° |
| 2026-04-27 16:57 | 4.48110 | 72.88572 | 19641 ft | 430 kts | 149° |
| 2026-04-27 16:57 | 4.46373 | 72.89536 | 19214 ft | 428 kts | 149° |
| 2026-04-27 16:57 | 4.43777 | 72.90977 | 18592 ft | 426 kts | 149° |
| 2026-04-27 16:57 | 4.41189 | 72.92414 | 17937 ft | 423 kts | 149° |
| 2026-04-27 16:58 | 4.38616 | 72.93842 | 17255 ft | 420 kts | 149° |
| 2026-04-27 16:58 | 4.36073 | 72.95253 | 16642 ft | 416 kts | 149° |
| 2026-04-27 16:58 | 4.33549 | 72.96653 | 16033 ft | 412 kts | 149° |
| 2026-04-27 16:58 | 4.31047 | 72.98042 | 15430 ft | 409 kts | 149° |
| 2026-04-27 16:59 | 4.28598 | 72.99400 | 14838 ft | 405 kts | 149° |
| 2026-04-27 16:59 | 4.26135 | 73.00767 | 14230 ft | 403 kts | 149° |
| 2026-04-27 16:59 | 4.23689 | 73.02124 | 13629 ft | 400 kts | 150° |
| 2026-04-27 16:59 | 4.21261 | 73.03471 | 12970 ft | 392 kts | 150° |
| 2026-04-27 17:00 | 4.17467 | 73.05573 | 12018 ft | 358 kts | 150° |
| 2026-04-27 17:00 | 4.14632 | 73.07144 | 11391 ft | 338 kts | 150° |
| 2026-04-27 17:00 | 4.12576 | 73.08285 | 11026 ft | 341 kts | 150° |
| 2026-04-27 17:01 | 4.10513 | 73.09430 | 10876 ft | 337 kts | 150° |
| 2026-04-27 17:01 | 4.08481 | 73.10557 | 10716 ft | 329 kts | 150° |
| 2026-04-27 17:01 | 4.06511 | 73.11649 | 10573 ft | 319 kts | 150° |
| 2026-04-27 17:01 | 4.04620 | 73.12698 | 10439 ft | 309 kts | 150° |
| 2026-04-27 17:02 | 4.02767 | 73.13727 | 10311 ft | 300 kts | 150° |
| 2026-04-27 17:02 | 4.00970 | 73.14723 | 10188 ft | 291 kts | 150° |
| 2026-04-27 17:02 | 3.99227 | 73.15689 | 10065 ft | 282 kts | 150° |
| 2026-04-27 17:02 | 3.97529 | 73.16629 | 9836 ft | 278 kts | 150° |
| 2026-04-27 17:03 | 3.95945 | 73.17698 | 9486 ft | 271 kts | 131° |
| 2026-04-27 17:03 | 3.95031 | 73.19310 | 9202 ft | 266 kts | 104° |
| 2026-04-27 17:03 | 3.94818 | 73.21142 | 8919 ft | 267 kts | 89° |
| 2026-04-27 17:03 | 3.94837 | 73.23035 | 8617 ft | 274 kts | 89° |
| 2026-04-27 17:04 | 3.94849 | 73.24956 | 8280 ft | 277 kts | 89° |
| 2026-04-27 17:04 | 3.94855 | 73.26861 | 7961 ft | 277 kts | 89° |
| 2026-04-27 17:04 | 3.94857 | 73.28789 | 7637 ft | 276 kts | 89° |
| 2026-04-27 17:04 | 3.94860 | 73.30709 | 7321 ft | 276 kts | 89° |
| 2026-04-27 17:05 | 3.94866 | 73.32636 | 6999 ft | 276 kts | 89° |
| 2026-04-27 17:05 | 3.94871 | 73.34553 | 6681 ft | 276 kts | 89° |
| 2026-04-27 17:05 | 3.94876 | 73.36474 | 6363 ft | 276 kts | 89° |
| 2026-04-27 17:05 | 3.94882 | 73.38399 | 6028 ft | 276 kts | 89° |
| 2026-04-27 17:06 | 3.94887 | 73.40321 | 5689 ft | 276 kts | 89° |
| 2026-04-27 17:06 | 3.94890 | 73.42240 | 5397 ft | 274 kts | 89° |
| 2026-04-27 17:06 | 3.94892 | 73.44150 | 5131 ft | 272 kts | 89° |
| 2026-04-27 17:06 | 3.94893 | 73.46003 | 4885 ft | 269 kts | 89° |
| 2026-04-27 17:07 | 3.94894 | 73.47875 | 4633 ft | 267 kts | 89° |
| 2026-04-27 17:07 | 3.94907 | 73.49721 | 4354 ft | 261 kts | 85° |
| 2026-04-27 17:07 | 3.95417 | 73.51407 | 4134 ft | 250 kts | 54° |
| 2026-04-27 17:07 | 3.96674 | 73.52498 | 4040 ft | 235 kts | 22° |
| 2026-04-27 17:08 | 3.98238 | 73.52860 | 3792 ft | 227 kts | 6° |
| 2026-04-27 17:08 | 3.99786 | 73.53044 | 3514 ft | 221 kts | 4° |
| 2026-04-27 17:08 | 4.01289 | 73.53109 | 3210 ft | 210 kts | 360° |
| 2026-04-27 17:08 | 4.02695 | 73.53113 | 2938 ft | 193 kts | 359° |
| 2026-04-27 17:09 | 4.03983 | 73.53110 | 2723 ft | 177 kts | 358° |
| 2026-04-27 17:09 | 4.05143 | 73.53109 | 2485 ft | 159 kts | 358° |
| 2026-04-27 17:09 | 4.06201 | 73.53108 | 2315 ft | 151 kts | 358° |
| 2026-04-27 17:09 | 4.07253 | 73.53102 | 2124 ft | 151 kts | 356° |
| 2026-04-27 17:10 | 4.08295 | 73.53086 | 1914 ft | 149 kts | 358° |
| 2026-04-27 17:10 | 4.09325 | 73.53087 | 1696 ft | 147 kts | 357° |
| 2026-04-27 17:10 | 4.10349 | 73.53094 | 1461 ft | 147 kts | 358° |
| 2026-04-27 17:10 | 4.11366 | 73.53097 | 1337 ft | 147 kts | 358° |
| 2026-04-27 17:11 | 4.12374 | 73.53108 | 1251 ft | 147 kts | 357° |
| 2026-04-27 17:11 | 4.14455 | 73.53103 | 843 ft | 148 kts | 359° |
| 2026-04-27 17:11 | 4.15494 | 73.53100 | 632 ft | 148 kts | 357° |
| 2026-04-27 17:12 | 4.17533 | 73.53100 | 251 ft | 147 kts | 357° |
| 2026-04-27 17:12 | 4.18558 | 73.53104 | 54 ft | 147 kts | 357° |
| 2026-04-27 17:12 | 4.19534 | 73.53102 | 18 ft | 129 kts | 358° |
| 2026-04-27 17:13 | 4.20248 | 73.53095 | 17 ft | 79 kts | 360° |
| 2026-04-27 17:13 | 4.20631 | 73.53093 | 17 ft | 40 kts | 359° |
| 2026-04-27 17:13 | 4.20863 | 73.53093 | 17 ft | 20 kts | 359° |
| 2026-04-27 17:13 | 4.20934 | 73.52992 | 17 ft | 20 kts | 268° |
| 2026-04-27 17:14 | 4.20845 | 73.52897 | 17 ft | 20 kts | 194° |
| 2026-04-27 17:14 | 4.20704 | 73.52891 | 17 ft | 20 kts | 179° |
| 2026-04-27 17:14 | 4.20564 | 73.52893 | 17 ft | 20 kts | 179° |
| 2026-04-27 17:14 | 4.20423 | 73.52895 | 17 ft | 20 kts | 179° |
| 2026-04-27 17:15 | 4.20284 | 73.52896 | 17 ft | 20 kts | 179° |
| 2026-04-27 17:15 | 4.20143 | 73.52898 | 17 ft | 20 kts | 179° |
| 2026-04-27 17:15 | 4.20002 | 73.52900 | 17 ft | 20 kts | 179° |
| 2026-04-27 17:15 | 4.19862 | 73.52903 | 17 ft | 20 kts | 178° |
| 2026-04-27 17:16 | 4.19721 | 73.52907 | 17 ft | 20 kts | 179° |
| 2026-04-27 17:16 | 4.19580 | 73.52908 | 17 ft | 20 kts | 179° |
| 2026-04-27 17:16 | 4.19440 | 73.52911 | 17 ft | 20 kts | 179° |
| 2026-04-27 17:16 | 4.19299 | 73.52913 | 17 ft | 20 kts | 179° |
| 2026-04-27 17:17 | 4.19158 | 73.52915 | 17 ft | 20 kts | 179° |
| 2026-04-27 17:17 | 4.19047 | 73.52916 | 17 ft | 15 kts | 179° |
| 2026-04-27 17:17 | 4.18965 | 73.52918 | 17 ft | 9 kts | 185° |
| 2026-04-27 17:18 | 4.18954 | 73.52847 | 17 ft | 1 kts | 294° |
| 2026-04-27 17:18 | 4.18956 | 73.52834 | 17 ft | 2 kts | 278° |
| 2026-04-27 17:18 | 4.18957 | 73.52814 | 17 ft | 1 kts | 271° |
| 2026-04-27 17:18 | 4.18957 | 73.52808 | 17 ft | 1 kts | 270° |
| 2026-04-27 17:19 | 4.18957 | 73.52803 | 17 ft | 0 kts | 270° |